Time;durP1;ratioP1;P1;durP2;ratioP2;P2;SDS_P1;SDS_P2;PMS_P1;PMS_P2;Temp;Humidity;BMP_temperature;BMP_pressure;BME280_temperature;BME280_humidity;BME280_pressure;Samples;Min_cycle;Max_cycle;Signal;HPM_P1;HPM_P2
2023/05/31 05:23:31;;;;;;;5.40;1.90;;;;;;;23.49;43.95;98509.60;104146;1292;614316;-86
2023/05/31 05:26:11;;;;;;;7.30;2.40;;;;;;;23.43;42.92;98509.05;106594;1265;59636;-89
2023/05/31 05:28:44;;;;;;;3.70;2.10;;;;;;;23.40;42.27;98505.17;107621;1267;60600;-90
2023/05/31 05:31:42;;;;;;;3.30;1.90;;;;;;;23.39;41.61;98511.39;106337;1270;71508;-89
2023/05/31 05:42:36;;;;;;;3.20;1.80;;;;;;;23.45;40.01;98522.65;104513;1306;59582;-93
2023/05/31 05:45:21;;;;;;;5.90;2.00;;;;;;;23.47;39.64;98523.39;106113;1281;60308;-96
2023/05/31 05:48:10;;;;;;;3.80;1.90;;;;;;;23.47;39.42;98520.10;105320;1281;71875;-91
2023/05/31 05:50:50;;;;;;;4.60;1.70;;;;;;;23.48;39.32;98520.23;103107;1280;10145256;-94
2023/05/31 05:53:45;;;;;;;6.40;2.00;;;;;;;23.49;39.77;98517.21;94450;1288;71736;-92
2023/05/31 05:56:45;;;;;;;5.80;2.20;;;;;;;23.49;39.69;98515.11;105258;1283;59391;-94
2023/05/31 06:02:49;;;;;;;6.10;1.90;;;;;;;23.51;38.72;98513.83;106581;1274;70842;-93
2023/05/31 06:05:51;;;;;;;5.60;2.80;;;;;;;23.52;38.63;98516.27;107485;1276;66313;-89
2023/05/31 06:09:20;;;;;;;;;;;;;;;;;;;;;
2023/05/31 06:12:34;;;;;;;5.90;1.80;;;;;;;23.54;38.75;98522.75;105849;1281;59830;-93
2023/05/31 06:15:27;;;;;;;2.80;2.10;;;;;;;23.53;38.62;98520.83;107427;1278;59539;-89
2023/05/31 06:18:01;;;;;;;1.90;1.70;;;;;;;23.54;38.80;98521.85;108241;1271;71267;-93
2023/05/31 06:20:55;;;;;;;5.00;1.80;;;;;;;23.53;38.61;98521.77;108205;1271;68336;-91
2023/05/31 06:37:13;;;;;;;8.60;2.20;;;;;;;23.48;38.42;98530.31;108410;1269;66129;-93
2023/05/31 06:39:47;;;;;;;8.60;1.90;;;;;;;23.49;38.72;98528.90;108536;1270;71292;-87
2023/05/31 06:42:21;;;;;;;6.90;2.30;;;;;;;23.52;39.06;98517.73;108650;1270;59352;-90
2023/05/31 07:10:17;;;;;;;3.80;1.50;;;;;;;23.89;38.65;98521.23;82339;1299;73992;-86
2023/05/31 07:12:59;;;;;;;7.10;2.20;;;;;;;23.86;38.72;98519.29;106811;1270;59284;-88
2023/05/31 07:15:48;;;;;;;4.80;1.90;;;;;;;23.82;38.87;98516.94;106064;1268;61454;-88
2023/05/31 07:18:22;;;;;;;6.40;2.80;;;;;;;23.81;38.84;98511.19;105883;1268;72716;-88
2023/05/31 07:21:17;;;;;;;4.40;2.00;;;;;;;23.79;38.74;98511.40;105550;1269;68721;-89
2023/05/31 07:24:01;;;;;;;9.50;2.00;;;;;;;23.77;38.71;98510.02;106076;1268;71903;-89
2023/05/31 07:26:45;;;;;;;6.80;2.50;;;;;;;23.75;38.59;98509.57;106807;1268;60232;-91
2023/05/31 07:29:21;;;;;;;23.00;3.40;;;;;;;23.72;38.58;98504.59;106491;1268;59207;-88
2023/05/31 07:32:05;;;;;;;8.70;2.80;;;;;;;23.71;38.62;98504.98;106362;1274;73003;-90
2023/05/31 07:34:35;;;;;;;8.50;2.20;;;;;;;23.69;38.45;98504.85;106438;1269;69246;-87
2023/05/31 07:37:27;;;;;;;5.70;2.00;;;;;;;23.69;38.22;98502.14;105874;1268;73933;-84
2023/05/31 07:40:24;;;;;;;5.50;2.00;;;;;;;23.68;38.12;98500.95;105729;1276;60996;-86
2023/05/31 07:42:57;;;;;;;6.10;1.80;;;;;;;23.68;37.96;98503.70;105566;1271;60584;-85
2023/05/31 07:45:27;;;;;;;7.30;2.40;;;;;;;23.67;38.66;98498.69;105425;1276;74364;-86
2023/05/31 07:48:03;;;;;;;11.10;2.80;;;;;;;23.68;39.51;98498.55;104979;1270;67570;-88
2023/05/31 07:50:35;;;;;;;9.60;3.00;;;;;;;23.71;40.31;98493.84;105858;1271;72793;-91
2023/05/31 07:53:20;;;;;;;14.90;3.50;;;;;;;23.74;41.13;98496.35;105937;1271;60164;-91
2023/05/31 07:56:03;;;;;;;14.40;2.40;;;;;;;23.78;41.49;98497.71;105908;1277;59609;-95
2023/05/31 07:59:04;;;;;;;10.40;3.40;;;;;;;23.84;41.79;98493.04;105920;1273;75119;-93
2023/05/31 08:01:36;;;;;;;9.50;3.00;;;;;;;23.88;41.84;98489.82;105233;1273;68047;-90
2023/05/31 08:04:09;;;;;;;17.80;2.90;;;;;;;23.92;42.05;98487.09;105436;1275;73907;-89
2023/05/31 08:07:07;;;;;;;15.50;3.30;;;;;;;23.96;42.20;98491.30;104952;1274;60571;-92
2023/05/31 08:09:37;;;;;;;8.00;2.80;;;;;;;24.00;42.33;98486.86;105098;1273;59613;-92
2023/05/31 08:12:07;;;;;;;10.60;2.60;;;;;;;24.03;42.22;98485.13;105014;1278;73665;-90
2023/05/31 08:14:36;;;;;;;10.50;3.00;;;;;;;24.06;42.22;98485.85;105701;1273;68901;-90
2023/05/31 08:17:06;;;;;;;10.00;2.90;;;;;;;24.09;42.36;98486.05;106743;1273;72312;-93
2023/05/31 08:19:37;;;;;;;11.90;3.20;;;;;;;24.12;42.41;98486.61;106227;1273;60500;-94
2023/05/31 08:22:14;;;;;;;22.20;3.70;;;;;;;24.15;42.48;98489.81;105667;1274;61259;-90
2023/05/31 08:24:43;;;;;;;18.90;3.20;;;;;;;24.18;42.55;98488.20;105888;1273;71591;-93
2023/05/31 08:27:17;;;;;;;19.90;4.00;;;;;;;24.22;42.75;98492.37;106123;1274;67889;-93
2023/05/31 08:29:52;;;;;;;24.00;4.30;;;;;;;24.24;43.02;98491.65;105627;1270;71581;-94
2023/05/31 08:32:54;;;;;;;22.20;5.10;;;;;;;24.28;43.17;98493.77;106280;1271;60336;-91
2023/05/31 08:35:23;;;;;;;29.10;5.30;;;;;;;24.31;43.37;98491.83;106378;1270;60084;-89
2023/05/31 08:37:56;;;;;;;41.20;6.80;;;;;;;24.34;43.44;98492.62;106663;1270;71997;-94
2023/05/31 08:40:26;;;;;;;43.30;7.10;;;;;;;24.37;43.55;98496.45;106531;1274;69028;-93
2023/05/31 08:43:15;;;;;;;68.20;8.60;;;;;;;24.40;43.74;98491.16;105528;1271;71957;-91
2023/05/31 08:45:49;;;;;;;70.60;9.80;;;;;;;24.43;43.76;98493.70;105572;1271;59691;-87
2023/05/31 08:48:38;;;;;;;48.40;8.60;;;;;;;24.46;43.83;98500.67;105342;1271;59926;-90
2023/05/31 08:54:32;;;;;;;70.00;8.50;;;;;;;24.50;43.87;98493.14;105454;1271;67822;-90
2023/05/31 08:57:03;;;;;;;58.50;8.50;;;;;;;24.52;43.58;98490.30;105245;1270;71812;-90
2023/05/31 08:59:33;;;;;;;47.90;7.70;;;;;;;24.54;43.44;98486.80;105619;1270;59729;-89
2023/05/31 09:05:45;;;;;;;69.00;11.80;;;;;;;24.59;43.60;98493.61;105551;1271;72096;-92
2023/05/31 09:09:20;;;;;;;73.30;11.40;;;;;;;24.61;43.73;98491.69;105321;1277;69978;-91
2023/05/31 09:12:12;;;;;;;72.90;11.80;;;;;;;24.62;43.69;98484.77;105713;1276;73023;-89
2023/05/31 09:15:48;;;;;;;80.70;11.60;;;;;;;24.64;43.88;98481.41;105283;1277;61780;-87
2023/05/31 09:18:23;;;;;;;78.80;14.30;;;;;;;24.65;43.84;98482.90;105271;1277;60824;-89
2023/05/31 09:22:32;;;;;;;88.60;14.10;;;;;;;24.67;43.68;98480.60;105111;1277;71582;-89
2023/05/31 09:26:55;;;;;;;75.90;13.10;;;;;;;24.68;43.80;98479.00;104294;1285;69784;-88
2023/05/31 09:29:25;;;;;;;64.60;12.80;;;;;;;24.69;43.83;98479.64;104248;1277;71338;-92
2023/05/31 09:32:12;;;;;;;72.80;12.20;;;;;;;24.69;43.86;98478.50;104710;1277;60305;-89
2023/05/31 09:34:47;;;;;;;68.30;14.80;;;;;;;24.68;43.89;98477.31;105489;1276;60966;-88
2023/05/31 09:37:23;;;;;;;69.10;13.00;;;;;;;24.68;43.96;98472.83;105021;1277;74131;-90
2023/05/31 09:39:56;;;;;;;73.00;13.30;;;;;;;24.67;43.98;98470.54;104722;1281;68947;-92
2023/05/31 09:42:25;;;;;;;74.80;14.60;;;;;;;24.67;43.93;98467.66;105581;1278;72386;-91
2023/05/31 09:44:54;;;;;;;70.70;13.80;;;;;;;24.66;43.96;98469.80;105803;1276;60761;-93
2023/05/31 09:47:27;;;;;;;71.00;15.10;;;;;;;24.66;44.01;98468.02;105914;1277;60485;-90
2023/05/31 09:49:55;;;;;;;72.60;13.80;;;;;;;24.65;44.00;98469.77;105903;1277;71753;-92
2023/05/31 09:52:27;;;;;;;63.20;12.80;;;;;;;24.64;44.02;98466.89;105830;1277;69248;-93
2023/05/31 09:54:56;;;;;;;66.80;11.60;;;;;;;24.64;44.04;98468.04;105012;1274;73897;-90
2023/05/31 09:57:40;;;;;;;52.60;12.80;;;;;;;24.64;44.02;98463.66;104450;1274;61465;-90
2023/05/31 10:00:13;;;;;;;55.60;11.70;;;;;;;24.63;43.88;98467.80;104789;1277;60828;-90
2023/05/31 10:02:47;;;;;;;58.20;12.00;;;;;;;24.62;43.91;98460.23;105083;1271;73991;-87
2023/05/31 10:05:21;;;;;;;63.50;11.20;;;;;;;24.62;43.83;98459.00;105882;1273;66504;-90
2023/05/31 10:08:12;;;;;;;46.50;11.90;;;;;;;24.60;43.75;98455.31;106105;1271;73697;-90
2023/05/31 10:10:45;;;;;;;31.70;9.90;;;;;;;24.60;43.87;98455.06;106347;1270;60429;-93
2023/05/31 10:13:18;;;;;;;45.20;10.60;;;;;;;24.60;43.93;98450.12;106059;1271;60038;-88
2023/05/31 10:15:49;;;;;;;47.00;11.40;;;;;;;24.60;44.00;98446.27;106108;1270;73532;-89
2023/05/31 10:18:23;;;;;;;44.20;9.90;;;;;;;24.60;44.17;98444.20;106006;1270;66924;-89
2023/05/31 10:21:27;;;;;;;47.60;10.00;;;;;;;24.61;44.13;98442.46;105774;1271;72385;-91
2023/05/31 10:24:26;;;;;;;42.40;9.70;;;;;;;24.61;44.26;98440.38;105141;1270;59459;-88
2023/05/31 10:27:13;;;;;;;47.90;9.30;;;;;;;24.62;44.52;98440.12;104982;1279;60307;-88
2023/05/31 10:29:43;;;;;;;41.00;10.30;;;;;;;24.62;44.63;98434.21;105456;1276;73318;-87
2023/05/31 10:32:30;;;;;;;40.10;10.40;;;;;;;24.63;44.71;98435.23;106378;1276;68133;-87
2023/05/31 10:35:06;;;;;;;45.40;9.80;;;;;;;24.64;44.89;98425.98;106283;1274;73119;-89
2023/05/31 10:37:45;;;;;;;33.30;8.50;;;;;;;24.65;45.07;98426.41;106512;1279;60033;-92
2023/05/31 10:40:43;;;;;;;34.80;8.30;;;;;;;24.66;45.15;98421.64;107142;1274;59423;-89
2023/05/31 10:43:42;;;;;;;45.10;9.60;;;;;;;24.67;45.21;98424.62;105741;1274;72163;-93
2023/05/31 10:46:22;;;;;;;31.20;8.00;;;;;;;24.70;44.98;98424.19;105746;1277;67703;-92
2023/05/31 10:49:03;;;;;;;25.40;7.20;;;;;;;24.73;44.46;98422.80;105777;1274;71603;-86
2023/05/31 10:51:48;;;;;;;22.30;6.20;;;;;;;24.75;43.82;98423.65;105140;1279;59633;-85
2023/05/31 10:54:32;;;;;;;18.00;5.70;;;;;;;24.76;43.12;98420.91;105541;1274;60276;-83
2023/05/31 10:57:07;;;;;;;14.40;4.80;;;;;;;24.78;42.73;98419.21;105259;1274;74346;-88
2023/05/31 10:59:44;;;;;;;21.10;4.50;;;;;;;24.78;42.30;98418.93;106289;1270;68357;-88
2023/05/31 11:02:17;;;;;;;21.40;5.10;;;;;;;24.79;42.17;98409.90;106437;1271;71131;-85
2023/05/31 11:04:52;;;;;;;14.40;4.50;;;;;;;24.79;42.20;98409.56;106028;1270;59917;-86
2023/05/31 11:09:01;;;;;;;19.00;6.00;;;;;;;24.79;42.03;98403.85;105205;1273;60206;-88
2023/05/31 11:20:45;;;;;;;20.90;5.50;;;;;;;24.69;42.29;98407.56;105122;1274;73018;-84
2023/05/31 11:23:32;;;;;;;16.00;5.30;;;;;;;24.68;42.39;98400.89;105190;1274;59448;-84
2023/05/31 11:26:20;;;;;;;19.70;5.00;;;;;;;24.67;42.36;98400.27;104543;1273;60748;-81
2023/05/31 11:29:02;;;;;;;11.40;4.60;;;;;;;24.67;42.24;98397.95;104660;1280;73348;-83
2023/05/31 11:32:02;;;;;;;17.40;5.20;;;;;;;24.67;42.21;98397.70;104476;1273;68979;-86
2023/05/31 11:34:48;;;;;;;12.70;4.00;;;;;;;24.67;42.22;98391.11;104922;1279;73314;-84
2023/05/31 11:37:18;;;;;;;12.20;4.30;;;;;;;24.68;42.17;98395.56;104637;1273;61193;-85
2023/05/31 11:39:59;;;;;;;13.40;5.00;;;;;;;24.68;42.31;98388.63;104931;1274;60569;-86
2023/05/31 11:42:33;;;;;;;11.10;4.30;;;;;;;24.68;42.20;98383.14;104831;1274;74028;-85
2023/05/31 11:45:33;;;;;;;16.50;4.90;;;;;;;24.69;42.07;98386.66;105312;1274;69005;-84
2023/05/31 11:48:38;;;;;;;15.00;4.30;;;;;;;24.68;42.11;98377.95;104522;1279;71557;-84
2023/05/31 11:51:10;;;;;;;10.50;3.50;;;;;;;24.70;41.80;98380.54;104681;1276;61023;-85
2023/05/31 11:58:30;;;;;;;10.40;3.20;;;;;;;24.70;41.29;98370.56;105011;1274;74050;-85
2023/05/31 12:00:59;;;;;;;7.90;3.60;;;;;;;24.71;41.42;98364.99;104682;1274;70544;-86
2023/05/31 12:03:31;;;;;;;7.40;3.50;;;;;;;24.71;41.47;98367.16;104597;1274;73330;-83
2023/05/31 12:06:08;;;;;;;10.10;3.80;;;;;;;24.72;41.52;98368.30;104640;1274;61847;-83
2023/05/31 12:08:42;;;;;;;16.80;4.70;;;;;;;24.73;41.42;98367.00;104434;1274;60586;-84
2023/05/31 12:11:15;;;;;;;13.50;3.30;;;;;;;24.73;41.57;98370.55;104828;1274;73975;-85
2023/05/31 12:13:44;;;;;;;11.60;3.90;;;;;;;24.74;41.65;98369.34;104862;1274;68958;-83
2023/05/31 12:16:12;;;;;;;13.90;3.40;;;;;;;24.75;41.39;98370.19;104903;1274;72452;-85
2023/05/31 12:18:42;;;;;;;7.40;2.50;;;;;;;24.75;41.21;98369.39;105131;1277;59390;-86
2023/05/31 12:30:53;;;;;;;5.20;2.40;;;;;;;24.76;40.45;98350.38;105163;1272;67360;-84
2023/05/31 12:35:18;;;;;;;3.20;2.60;;;;;;;24.77;40.35;98344.09;106024;1276;73016;-87
2023/05/31 12:38:04;;;;;;;5.50;2.50;;;;;;;24.79;40.11;98345.34;105773;1277;60327;-88
2023/05/31 12:45:09;;;;;;;5.50;3.30;;;;;;;24.81;39.98;98340.40;106891;1276;75130;-86
2023/05/31 12:47:41;;;;;;;9.90;2.60;;;;;;;24.82;39.82;98333.33;104862;1277;68558;-86
2023/05/31 12:50:15;;;;;;;4.30;2.50;;;;;;;24.84;39.50;98324.52;104738;1277;71045;-87
2023/05/31 12:52:57;;;;;;;7.50;2.50;;;;;;;24.85;39.46;98328.23;105505;1276;60429;-92
2023/05/31 12:55:26;;;;;;;5.80;3.20;;;;;;;24.86;39.51;98326.21;104801;1283;60542;-87
2023/05/31 12:57:55;;;;;;;6.20;3.00;;;;;;;24.88;39.73;98324.48;105517;1277;74024;-88
2023/05/31 13:04:57;;;;;;;6.30;2.70;;;;;;;24.95;39.79;98321.86;106875;1278;71822;-90
2023/05/31 13:14:55;;;;;;;11.80;2.90;;;;;;;25.05;39.11;98314.84;108467;1267;74908;-93
2023/05/31 13:17:52;;;;;;;12.70;2.80;;;;;;;25.08;39.00;98311.65;108021;1270;68824;-90
2023/05/31 13:20:29;;;;;;;8.20;3.10;;;;;;;25.11;38.75;98309.48;105947;1269;73382;-88
2023/05/31 13:23:01;;;;;;;12.40;2.60;;;;;;;25.14;38.42;98307.25;106161;1270;62319;-85
2023/05/31 13:25:28;;;;;;;18.00;3.40;;;;;;;25.16;38.29;98309.32;106007;1270;60998;-87
2023/05/31 13:27:59;;;;;;;15.40;3.30;;;;;;;25.17;38.13;98309.11;106156;1272;76671;-86
2023/05/31 13:30:55;;;;;;;9.50;3.30;;;;;;;25.19;37.84;98303.92;106642;1270;68496;-87
2023/05/31 13:34:20;;;;;;;8.00;3.10;;;;;;;25.22;37.75;98307.75;107069;1271;73348;-94
2023/05/31 13:36:57;;;;;;;9.10;3.40;;;;;;;25.26;37.77;98299.27;107430;1270;60814;-94
2023/05/31 13:40:19;;;;;;;11.60;2.90;;;;;;;25.28;37.85;98293.37;106690;1276;60357;-88
2023/05/31 13:42:49;;;;;;;11.90;3.20;;;;;;;25.30;37.92;98290.36;105350;1277;74205;-87
2023/05/31 13:48:42;;;;;;;10.70;2.70;;;;;;;25.33;37.64;98286.36;104079;1269;71373;-89
2023/05/31 13:51:15;;;;;;;7.90;2.80;;;;;;;25.36;37.66;98286.61;106270;1271;60671;-89
2023/05/31 13:54:28;;;;;;;5.60;2.40;;;;;;;25.37;37.69;98277.16;105573;1273;60465;-89
2023/05/31 13:57:09;;;;;;;8.20;2.80;;;;;;;25.39;37.37;98275.67;105489;1273;73239;-88
2023/05/31 13:59:46;;;;;;;11.10;2.80;;;;;;;25.40;37.45;98278.52;105779;1279;67574;-82
2023/05/31 14:18:37;;;;;;;15.70;3.30;;;;;;;25.71;37.71;98272.67;104638;1285;613186;-81
2023/05/31 14:21:09;;;;;;;13.30;3.20;;;;;;;25.77;38.12;98263.55;105527;1274;229220;-85
2023/05/31 14:23:51;;;;;;;12.30;3.10;;;;;;;25.75;38.21;98266.89;106087;1264;60205;-84
2023/05/31 14:26:19;;;;;;;11.80;3.50;;;;;;;25.73;38.23;98273.02;105717;1267;72406;-82
2023/05/31 14:28:48;;;;;;;10.80;3.40;;;;;;;25.70;38.50;98269.56;105574;1268;67519;-82
2023/05/31 14:31:16;;;;;;;11.50;4.00;;;;;;;25.68;38.66;98269.45;105428;1270;71479;-81
2023/05/31 14:33:44;;;;;;;7.60;3.20;;;;;;;25.66;38.65;98268.72;105715;1264;59355;-84
2023/05/31 14:36:13;;;;;;;8.90;3.60;;;;;;;25.63;38.84;98261.34;105649;1264;61340;-81
2023/05/31 14:38:41;;;;;;;10.30;3.50;;;;;;;25.60;39.16;98263.29;105739;1272;72546;-81
2023/05/31 14:41:10;;;;;;;10.70;3.70;;;;;;;25.58;39.28;98258.63;106013;1254;71588;-82
2023/05/31 14:54:46;;;;;;;7.30;3.70;;;;;;;25.79;39.48;98255.35;106319;1264;613802;-81
2023/05/31 14:57:14;;;;;;;7.00;2.90;;;;;;;25.82;39.50;98253.27;107407;1248;300922;-82
2023/05/31 14:59:41;;;;;;;10.30;4.00;;;;;;;25.79;39.60;98256.57;108498;1238;59320;-82
2023/05/31 15:02:09;;;;;;;9.20;3.30;;;;;;;25.77;39.68;98255.04;109022;1241;72121;-82
2023/05/31 15:04:36;;;;;;;9.20;3.40;;;;;;;25.74;39.69;98255.70;108834;1242;68384;-83
2023/05/31 15:07:04;;;;;;;9.20;3.30;;;;;;;25.71;39.90;98252.27;108829;1240;73117;-82
2023/05/31 15:09:32;;;;;;;7.30;2.80;;;;;;;25.68;39.88;98249.73;109068;1240;60473;-81
2023/05/31 15:12:00;;;;;;;7.80;2.90;;;;;;;25.65;40.07;98248.41;108759;1238;59308;-80
2023/05/31 15:14:28;;;;;;;7.20;3.00;;;;;;;25.63;40.24;98247.77;109289;1236;72977;-81
2023/05/31 15:16:56;;;;;;;6.50;2.70;;;;;;;25.60;40.21;98247.21;109444;1235;68748;-83
2023/05/31 15:19:23;;;;;;;9.60;3.20;;;;;;;25.58;40.49;98249.88;109026;1234;72650;-82
2023/05/31 15:21:50;;;;;;;10.20;3.60;;;;;;;25.57;40.60;98247.11;109117;1233;59630;-83
2023/05/31 15:24:18;;;;;;;7.00;3.80;;;;;;;25.54;40.60;98247.15;109110;1235;60391;-81
2023/05/31 15:26:46;;;;;;;6.80;3.00;;;;;;;25.53;40.84;98248.42;108699;1240;73135;-82
2023/05/31 15:29:13;;;;;;;6.00;3.40;;;;;;;25.51;40.84;98245.31;109106;1233;69439;-81
2023/05/31 15:31:41;;;;;;;7.70;3.40;;;;;;;25.50;40.97;98245.70;109171;1237;73788;-82
2023/05/31 15:34:08;;;;;;;8.00;3.90;;;;;;;25.48;40.96;98247.00;109287;1236;59608;-82
2023/05/31 15:36:37;;;;;;;8.00;2.90;;;;;;;25.47;41.05;98244.58;109441;1238;60126;-84
2023/05/31 15:39:05;;;;;;;6.00;3.10;;;;;;;25.46;41.21;98245.51;109692;1235;71605;-83
2023/05/31 15:41:33;;;;;;;9.20;3.80;;;;;;;25.45;41.24;98241.77;109538;1238;68060;-82
2023/05/31 15:44:02;;;;;;;6.20;3.40;;;;;;;25.44;41.27;98244.77;109556;1237;72460;-82
2023/05/31 15:46:30;;;;;;;5.50;3.00;;;;;;;25.43;41.41;98240.16;109677;1235;60297;-81
2023/05/31 15:48:58;;;;;;;9.20;3.00;;;;;;;25.43;41.42;98238.52;109199;1240;59572;-81
2023/05/31 15:51:25;;;;;;;5.50;2.60;;;;;;;25.42;41.48;98241.89;109064;1235;73053;-81
2023/05/31 15:53:52;;;;;;;5.60;3.20;;;;;;;25.42;41.55;98241.52;108645;1235;69740;-84
2023/05/31 15:56:21;;;;;;;6.10;2.90;;;;;;;25.42;41.73;98244.54;108971;1237;72156;-81
2023/05/31 15:58:50;;;;;;;6.20;3.00;;;;;;;25.41;41.64;98242.23;109091;1235;61153;-83
2023/05/31 16:01:18;;;;;;;4.00;3.00;;;;;;;25.41;41.67;98238.80;109213;1235;60111;-82
2023/05/31 16:03:46;;;;;;;7.20;3.20;;;;;;;25.41;41.84;98237.54;108899;1241;73437;-82
2023/05/31 16:06:14;;;;;;;6.40;3.20;;;;;;;25.40;41.78;98236.95;108860;1235;70189;-82
2023/05/31 16:08:43;;;;;;;4.30;2.90;;;;;;;25.40;41.91;98237.48;109021;1236;73157;-81
2023/05/31 16:11:11;;;;;;;5.80;3.00;;;;;;;25.39;41.89;98239.94;108494;1235;61831;-81
2023/05/31 16:13:39;;;;;;;4.90;2.80;;;;;;;25.39;42.04;98236.35;108870;1235;60234;-82
2023/05/31 16:16:06;;;;;;;8.10;3.20;;;;;;;25.39;42.13;98243.63;108656;1235;72252;-83
2023/05/31 16:18:34;;;;;;;7.60;3.00;;;;;;;25.38;42.11;98239.77;108355;1235;68886;-81
2023/05/31 16:21:03;;;;;;;7.10;3.50;;;;;;;25.38;42.19;98239.55;108749;1241;73299;-82
2023/05/31 16:23:30;;;;;;;6.40;2.50;;;;;;;25.38;42.10;98242.17;109032;1235;59913;-81
2023/05/31 16:25:58;;;;;;;7.20;2.80;;;;;;;25.37;42.24;98238.59;108873;1234;60236;-83
2023/05/31 16:28:26;;;;;;;6.40;2.90;;;;;;;25.37;42.26;98239.35;108424;1241;74371;-83
2023/05/31 16:30:54;;;;;;;5.20;2.40;;;;;;;25.36;42.28;98238.50;108524;1242;68858;-82
2023/05/31 16:33:22;;;;;;;4.00;2.30;;;;;;;25.37;42.29;98239.61;108447;1235;73309;-82
2023/05/31 16:35:49;;;;;;;5.00;2.30;;;;;;;25.36;42.44;98237.11;109184;1241;60248;-82
2023/05/31 16:38:17;;;;;;;6.30;3.70;;;;;;;25.36;42.31;98239.85;108775;1240;61599;-82
2023/05/31 16:40:44;;;;;;;5.90;3.20;;;;;;;25.36;42.51;98240.61;108788;1240;72322;-82
2023/05/31 16:43:12;;;;;;;3.40;2.20;;;;;;;25.36;42.38;98238.63;108516;1239;68678;-82
2023/05/31 16:45:39;;;;;;;3.80;2.30;;;;;;;25.35;42.62;98239.27;108697;1243;72611;-81
2023/05/31 16:48:07;;;;;;;5.30;2.60;;;;;;;25.35;42.56;98242.34;108756;1236;59644;-80
2023/05/31 16:50:34;;;;;;;4.70;2.70;;;;;;;25.35;42.56;98241.07;109007;1240;59640;-81
2023/05/31 16:53:02;;;;;;;5.40;3.10;;;;;;;25.35;42.64;98235.77;108973;1235;72032;-82
2023/05/31 16:55:30;;;;;;;8.10;3.10;;;;;;;25.35;42.69;98235.28;108609;1241;69405;-81
2023/05/31 16:57:58;;;;;;;8.30;2.90;;;;;;;25.34;42.67;98235.33;108738;1241;71579;-80
2023/05/31 17:00:25;;;;;;;8.40;2.80;;;;;;;25.34;42.71;98236.75;108728;1241;60926;-82
2023/05/31 17:02:54;;;;;;;3.90;2.20;;;;;;;25.34;42.83;98234.94;108864;1240;59866;-83
2023/05/31 17:05:23;;;;;;;4.50;3.10;;;;;;;25.34;42.71;98235.41;108714;1244;72489;-82
2023/05/31 17:07:50;;;;;;;4.20;2.60;;;;;;;25.34;42.72;98235.80;109085;1238;68893;-82
2023/05/31 17:10:18;;;;;;;6.00;3.00;;;;;;;25.34;42.85;98235.96;108933;1234;71237;-81
2023/05/31 17:12:46;;;;;;;5.80;2.40;;;;;;;25.33;42.87;98236.17;108811;1234;59559;-82
2023/05/31 17:15:14;;;;;;;5.00;2.90;;;;;;;25.34;42.86;98237.23;108929;1247;60411;-82
2023/05/31 17:17:43;;;;;;;3.40;2.70;;;;;;;25.33;42.84;98235.45;108742;1240;73478;-81
2023/05/31 17:20:11;;;;;;;3.60;2.60;;;;;;;25.34;42.84;98237.98;108394;1242;67563;-82
2023/05/31 17:22:41;;;;;;;5.30;2.70;;;;;;;25.33;42.88;98231.47;108711;1240;71749;-81
2023/05/31 17:25:09;;;;;;;6.70;2.60;;;;;;;25.33;42.87;98235.35;108797;1239;60422;-81
2023/05/31 17:27:37;;;;;;;4.70;2.80;;;;;;;25.33;42.89;98233.70;108773;1241;59530;-82
2023/05/31 17:30:07;;;;;;;4.20;2.30;;;;;;;25.32;43.06;98232.85;109173;1241;72093;-81
2023/05/31 17:32:34;;;;;;;5.20;2.80;;;;;;;25.32;42.95;98235.06;108676;1243;67576;-81
2023/05/31 17:35:04;;;;;;;5.30;2.30;;;;;;;25.32;42.92;98232.48;108713;1241;72874;-82
2023/05/31 17:37:33;;;;;;;2.80;2.30;;;;;;;25.32;43.04;98227.23;109066;1235;60210;-81
2023/05/31 17:40:01;;;;;;;6.90;2.90;;;;;;;25.32;43.13;98227.83;108982;1235;60341;-81
2023/05/31 17:42:29;;;;;;;4.00;2.60;;;;;;;25.32;43.09;98229.81;109185;1234;73116;-83
2023/05/31 17:44:56;;;;;;;4.10;2.40;;;;;;;25.32;43.08;98232.34;108678;1234;69061;-81
2023/05/31 17:47:25;;;;;;;2.70;2.30;;;;;;;25.32;43.09;98233.48;108948;1241;72380;-82
2023/05/31 17:49:52;;;;;;;3.40;2.20;;;;;;;25.31;43.12;98233.31;109130;1236;59640;-81
2023/05/31 17:52:20;;;;;;;4.10;2.20;;;;;;;25.31;43.16;98234.30;108873;1234;60404;-81
2023/05/31 17:54:48;;;;;;;5.70;2.30;;;;;;;25.31;43.14;98237.55;108839;1235;73708;-83
2023/05/31 17:57:15;;;;;;;3.70;2.10;;;;;;;25.31;43.16;98235.65;109055;1234;68721;-81
2023/05/31 17:59:44;;;;;;;3.40;2.30;;;;;;;25.30;43.20;98232.05;109242;1238;71590;-80
2023/05/31 18:02:12;;;;;;;3.80;2.40;;;;;;;25.30;43.27;98234.63;108946;1234;59671;-81
2023/05/31 18:04:39;;;;;;;3.30;2.00;;;;;;;25.30;43.14;98233.52;109078;1235;60485;-82
2023/05/31 18:07:06;;;;;;;3.00;2.10;;;;;;;25.30;43.21;98233.91;108510;1235;72293;-82
2023/05/31 18:09:35;;;;;;;4.50;2.50;;;;;;;25.30;43.22;98238.35;108551;1234;67719;-82
2023/05/31 18:12:02;;;;;;;3.40;2.30;;;;;;;25.29;43.15;98237.28;109264;1234;73076;-82
2023/05/31 18:14:32;;;;;;;3.90;2.30;;;;;;;25.29;43.18;98237.36;109220;1235;59629;-83
2023/05/31 18:17:00;;;;;;;2.90;2.30;;;;;;;25.28;43.27;98239.77;108604;1235;61393;-82
2023/05/31 18:19:33;;;;;;;4.90;2.80;;;;;;;25.29;43.31;98247.09;108926;1238;73720;-82
2023/05/31 18:22:01;;;;;;;3.20;2.00;;;;;;;25.28;43.41;98247.50;108841;1241;68700;-82
2023/05/31 18:24:29;;;;;;;3.20;2.40;;;;;;;25.28;43.40;98244.82;108913;1234;73983;-81
2023/05/31 18:27:16;;;;;;;3.70;2.20;;;;;;;25.27;43.37;98242.11;108928;1235;60794;-82
2023/05/31 18:29:43;;;;;;;3.40;2.30;;;;;;;25.27;43.46;98243.24;108674;1234;60123;-81
2023/05/31 18:32:11;;;;;;;3.10;2.20;;;;;;;25.26;43.46;98242.98;108679;1234;72534;-82
2023/05/31 18:34:39;;;;;;;4.60;2.70;;;;;;;25.26;43.47;98244.46;108432;1235;68847;-81
2023/05/31 18:37:10;;;;;;;5.90;2.70;;;;;;;25.24;43.53;98242.61;108429;1235;73302;-83
2023/05/31 18:39:38;;;;;;;3.70;2.30;;;;;;;25.24;43.53;98247.72;108750;1234;59733;-82
2023/05/31 18:42:09;;;;;;;3.90;2.20;;;;;;;25.23;43.62;98244.75;108941;1234;60432;-81
2023/05/31 18:44:36;;;;;;;4.30;2.80;;;;;;;25.23;43.62;98247.16;109270;1235;73445;-83
2023/05/31 18:47:05;;;;;;;2.40;2.20;;;;;;;25.22;43.64;98250.76;108620;1241;70074;-83
2023/05/31 18:49:33;;;;;;;4.00;2.30;;;;;;;25.22;43.71;98248.80;108624;1235;71217;-82
2023/05/31 18:52:01;;;;;;;2.70;2.00;;;;;;;25.21;43.77;98249.45;108823;1235;60884;-82
2023/05/31 18:54:29;;;;;;;2.50;2.00;;;;;;;25.21;43.64;98251.17;108757;1240;59703;-81
2023/05/31 18:57:00;;;;;;;3.80;2.30;;;;;;;25.21;43.68;98249.52;108438;1239;72534;-80
2023/05/31 18:59:29;;;;;;;3.90;2.40;;;;;;;25.20;43.85;98253.11;108329;1240;68427;-81
2023/05/31 19:01:58;;;;;;;4.10;2.30;;;;;;;25.19;43.79;98255.55;108732;1240;72517;-82
2023/05/31 19:04:26;;;;;;;3.60;2.40;;;;;;;25.19;43.86;98256.73;108666;1236;60552;-82
2023/05/31 19:06:55;;;;;;;4.50;2.60;;;;;;;25.18;43.83;98259.98;108405;1242;60755;-81
2023/05/31 19:09:22;;;;;;;4.30;2.50;;;;;;;25.17;43.82;98257.88;108424;1243;72850;-81
2023/05/31 19:11:50;;;;;;;2.90;1.90;;;;;;;25.17;43.85;98260.79;108573;1241;69190;-80
2023/05/31 19:14:18;;;;;;;2.80;2.50;;;;;;;25.16;43.87;98263.06;108807;1234;73164;-81
2023/05/31 19:16:46;;;;;;;4.20;2.00;;;;;;;25.16;43.89;98268.80;108603;1235;60901;-81
2023/05/31 19:19:14;;;;;;;2.50;2.20;;;;;;;25.16;43.86;98269.57;108988;1234;60980;-82
2023/05/31 19:21:42;;;;;;;3.20;2.20;;;;;;;25.15;44.01;98268.94;111702;1234;72459;-81
2023/05/31 19:24:10;;;;;;;4.10;2.90;;;;;;;25.15;44.04;98270.66;111587;1234;67769;-81
2023/05/31 19:26:37;;;;;;;4.50;2.10;;;;;;;25.15;43.93;98273.88;112265;1234;71855;-81
2023/05/31 19:29:05;;;;;;;2.90;2.00;;;;;;;25.16;44.01;98277.31;112303;1234;58908;-81
2023/05/31 19:31:33;;;;;;;3.40;1.90;;;;;;;25.16;44.01;98280.15;111991;1234;59467;-81
2023/05/31 19:34:01;;;;;;;3.40;2.30;;;;;;;25.17;44.04;98277.65;110818;1238;73790;-82
2023/05/31 19:36:28;;;;;;;2.50;2.30;;;;;;;25.18;43.98;98278.77;108307;1241;69273;-81